Time;durP1;ratioP1;P1;durP2;ratioP2;P2;SDS_P1;SDS_P2;PMS_P1;PMS_P2;Temp;Humidity;BMP_temperature;BMP_pressure;BME280_temperature;BME280_humidity;BME280_pressure;Samples;Min_cycle;Max_cycle;Signal;HPM_P1;HPM_P2
2021/10/21 00:02:06;;;;;;;6.07;3.63;;;;;;;15.99;65.63;99322.98;1557050;90;21437;-73
2021/10/21 00:04:33;;;;;;;4.00;3.62;;;;;;;16.01;65.68;99320.28;1367181;86;20013055;-73
2021/10/21 00:06:59;;;;;;;5.75;3.52;;;;;;;16.03;65.69;99308.00;1631591;86;21029;-73
2021/10/21 00:09:27;;;;;;;7.87;3.67;;;;;;;16.05;65.70;99303.53;1640016;86;20903;-73
2021/10/21 00:11:53;;;;;;;4.13;3.37;;;;;;;16.07;65.73;99296.45;1649502;86;20871;-73
2021/10/21 00:14:19;;;;;;;8.40;3.53;;;;;;;16.08;65.77;99290.31;1646136;85;20895;-73
2021/10/21 00:16:46;;;;;;;5.58;3.58;;;;;;;16.10;65.76;99284.08;1652748;86;21391;-73
2021/10/21 00:19:12;;;;;;;5.92;3.27;;;;;;;16.10;65.79;99285.37;1639900;86;27235;-73
2021/10/21 00:21:39;;;;;;;4.67;3.67;;;;;;;16.12;65.83;99273.52;1635660;86;20970;-73
2021/10/21 00:24:05;;;;;;;4.35;3.70;;;;;;;16.12;65.83;99261.32;1641748;86;21431;-73
2021/10/21 00:26:31;;;;;;;3.37;3.07;;;;;;;16.11;65.86;99257.53;1648012;86;20903;-73
2021/10/21 00:28:57;;;;;;;6.23;4.00;;;;;;;16.10;65.89;99254.09;1653786;86;21057;-73
2021/10/21 00:31:23;;;;;;;4.50;3.57;;;;;;;16.10;65.91;99238.91;1643020;86;20951;-73
2021/10/21 00:33:50;;;;;;;3.95;3.12;;;;;;;16.10;65.92;99228.01;1634938;86;20939;-73
2021/10/21 00:36:16;;;;;;;8.47;3.63;;;;;;;16.10;65.93;99203.70;1648337;86;20938;-73
2021/10/21 00:38:42;;;;;;;4.00;3.60;;;;;;;16.10;65.97;99174.55;1642670;86;20923;-73
2021/10/21 00:41:08;;;;;;;2.90;2.63;;;;;;;16.11;65.98;99181.91;1655879;85;20915;-73
2021/10/21 00:43:37;;;;;;;3.37;3.08;;;;;;;16.12;65.99;99220.06;1644944;86;20903;-73
2021/10/21 00:46:05;;;;;;;4.03;3.17;;;;;;;16.12;66.00;99246.98;1643805;86;20978;-73
2021/10/21 00:48:32;;;;;;;6.50;3.62;;;;;;;16.11;66.00;99253.16;1646888;86;20975;-73
2021/10/21 00:50:59;;;;;;;4.83;3.87;;;;;;;16.14;66.04;99249.03;1638765;85;20975;-73
2021/10/21 00:53:27;;;;;;;5.45;3.58;;;;;;;16.17;66.03;99233.66;1647346;86;20926;-73
2021/10/21 00:55:53;;;;;;;4.47;3.40;;;;;;;16.17;66.02;99228.44;1618105;87;21019;-73
2021/10/21 00:58:19;;;;;;;4.15;3.37;;;;;;;16.19;66.04;99226.58;1630081;86;20978;-73
2021/10/21 01:00:45;;;;;;;8.83;3.40;;;;;;;16.20;66.05;99231.70;1649493;86;20954;-73
2021/10/21 01:03:13;;;;;;;11.50;3.20;;;;;;;16.20;66.07;99219.97;1634331;86;20911;-73
2021/10/21 01:05:39;;;;;;;6.37;3.20;;;;;;;16.20;66.07;99234.78;1646514;86;20930;-73
2021/10/21 01:08:05;;;;;;;4.62;3.27;;;;;;;16.20;66.09;99220.43;1658466;84;20906;-73
2021/10/21 01:10:37;;;;;;;6.00;3.40;;;;;;;16.20;66.08;99208.70;1640975;85;20923;-73
2021/10/21 01:13:04;;;;;;;4.67;3.00;;;;;;;16.20;66.13;99210.00;1647197;85;20907;-73
2021/10/21 01:15:31;;;;;;;3.83;3.12;;;;;;;16.20;66.14;99191.27;1654600;85;20967;-73
2021/10/21 01:17:59;;;;;;;5.58;2.80;;;;;;;16.21;66.13;99177.30;1624548;85;20931;-73
2021/10/21 01:20:27;;;;;;;4.55;3.55;;;;;;;16.18;66.12;99160.54;1646102;85;21003;-73
2021/10/21 01:22:53;;;;;;;4.75;3.35;;;;;;;16.15;66.16;99144.25;1628218;85;20974;-73
2021/10/21 01:25:20;;;;;;;3.80;3.25;;;;;;;16.14;66.20;99151.70;1644437;84;20923;-73
2021/10/21 01:27:49;;;;;;;7.05;3.50;;;;;;;16.14;66.22;99147.32;1634182;85;20887;-73
2021/10/21 01:30:23;;;;;;;5.00;3.42;;;;;;;16.14;66.24;99163.44;1633408;85;20911;-73
2021/10/21 01:32:52;;;;;;;5.62;3.40;;;;;;;16.13;66.24;99169.11;1647576;85;20971;-73
2021/10/21 01:35:20;;;;;;;4.40;3.12;;;;;;;16.12;66.25;99163.99;1632708;85;20923;-73
2021/10/21 01:37:47;;;;;;;3.93;3.30;;;;;;;16.11;66.29;99150.62;1628700;87;20856;-73
2021/10/21 01:40:16;;;;;;;3.90;3.12;;;;;;;16.11;66.30;99142.33;1642692;85;21555;-73
2021/10/21 01:42:49;;;;;;;6.90;3.70;;;;;;;16.10;66.31;99137.20;1631260;85;20919;-73
2021/10/21 01:45:25;;;;;;;7.97;4.22;;;;;;;16.08;66.33;99137.77;1646062;85;28402;-73
2021/10/21 01:47:52;;;;;;;5.33;3.33;;;;;;;16.06;66.34;99133.11;1643643;85;20903;-73
2021/10/21 01:50:19;;;;;;;3.77;3.40;;;;;;;16.05;66.38;99122.31;1650602;85;20939;-73
2021/10/21 01:52:45;;;;;;;;;;;;;;;16.04;66.37;99128.45;1645704;85;20966;-73
2021/10/21 01:55:18;;;;;;;3.50;3.15;;;;;;;16.02;66.44;99127.25;1642566;85;20158;-73
2021/10/21 01:57:46;;;;;;;5.28;3.40;;;;;;;16.00;66.42;99125.20;1636664;85;20939;-73
2021/10/21 02:00:14;;;;;;;;;;;;;;;16.00;66.45;99126.97;1642972;85;20998;-73
2021/10/21 02:02:44;;;;;;;4.85;3.90;;;;;;;15.99;66.52;99129.20;1630893;86;20130;-73
2021/10/21 02:05:12;;;;;;;4.75;3.25;;;;;;;15.97;66.46;99124.09;1650798;85;20975;-73
2021/10/21 02:07:38;;;;;;;3.98;3.47;;;;;;;15.96;66.47;99123.72;1643182;85;20951;-73
2021/10/21 02:10:08;;;;;;;8.15;3.58;;;;;;;15.95;66.48;99105.56;1660061;85;20934;-73
2021/10/21 02:12:34;;;;;;;4.85;4.10;;;;;;;15.92;66.52;99112.27;1644867;85;21581;-73
2021/10/21 02:15:00;;;;;;;4.90;3.62;;;;;;;15.91;66.52;99115.34;1648244;85;20946;-73
2021/10/21 02:17:26;;;;;;;5.08;3.58;;;;;;;15.90;66.55;99111.06;1655637;84;20954;-73
2021/10/21 02:19:53;;;;;;;9.17;4.03;;;;;;;15.89;66.56;99107.62;1645628;85;20934;-73
2021/10/21 02:22:19;;;;;;;4.90;4.03;;;;;;;15.87;66.59;99089.93;1658851;85;20910;-73
2021/10/21 02:24:46;;;;;;;4.55;4.15;;;;;;;15.86;66.62;99083.51;1666936;84;20973;-73
2021/10/21 02:27:12;;;;;;;5.37;3.70;;;;;;;15.85;66.63;99075.31;1654999;85;20962;-73
2021/10/21 02:29:38;;;;;;;4.30;3.50;;;;;;;15.82;66.64;99049.44;1656236;85;21859;-73
2021/10/21 02:32:05;;;;;;;4.43;3.67;;;;;;;15.81;66.67;99047.30;1651675;85;21133;-73
2021/10/21 02:34:31;;;;;;;4.92;3.70;;;;;;;15.80;66.70;99041.72;1654559;85;20974;-73
2021/10/21 02:36:57;;;;;;;4.58;3.47;;;;;;;15.79;66.72;99032.69;1666875;83;20965;-73
2021/10/21 02:39:24;;;;;;;5.63;3.50;;;;;;;15.76;66.74;99028.50;1632843;85;20934;-73
2021/10/21 02:41:50;;;;;;;9.23;3.60;;;;;;;15.75;66.78;99020.31;1660684;85;20962;-73
2021/10/21 02:44:17;;;;;;;3.97;3.57;;;;;;;15.73;66.80;99019.58;1654575;85;20914;-73
2021/10/21 02:46:43;;;;;;;8.23;3.40;;;;;;;15.74;66.82;99030.84;1638374;85;21736;-73
2021/10/21 02:49:10;;;;;;;3.50;3.20;;;;;;;15.72;66.84;99028.33;1649291;85;20953;-73
2021/10/21 02:51:36;;;;;;;5.87;3.67;;;;;;;15.72;66.87;99025.72;1665361;85;20974;-73
2021/10/21 02:54:02;;;;;;;5.40;3.77;;;;;;;15.72;66.87;99025.72;1625823;85;20952;-73
2021/10/21 02:56:28;;;;;;;3.83;3.25;;;;;;;15.73;66.87;99026.09;1653767;85;21514;-73
2021/10/21 02:58:54;;;;;;;3.83;3.53;;;;;;;15.73;66.89;99026.56;1658773;85;23783;-73
2021/10/21 03:01:20;;;;;;;5.23;3.37;;;;;;;15.73;66.92;99031.77;1652771;84;20990;-73
2021/10/21 03:03:46;;;;;;;7.27;4.07;;;;;;;15.71;66.92;99027.95;1640554;86;20844;-73
2021/10/21 03:06:12;;;;;;;4.33;3.70;;;;;;;15.70;66.96;99035.87;1644836;87;21687;-73
2021/10/21 03:08:41;;;;;;;5.10;4.00;;;;;;;15.70;66.99;99046.30;1627992;85;20983;-73
2021/10/21 03:11:06;;;;;;;4.42;3.58;;;;;;;15.68;67.02;99034.66;1637153;86;20991;-73
2021/10/21 03:13:32;;;;;;;3.80;3.50;;;;;;;15.67;67.01;99036.05;1633160;86;21812;-73
2021/10/21 03:15:59;;;;;;;4.27;3.73;;;;;;;15.66;67.05;99026.56;1634384;87;20936;-73
2021/10/21 03:18:25;;;;;;;6.97;4.70;;;;;;;15.64;67.06;99022.75;1636756;86;21560;-73
2021/10/21 03:20:52;;;;;;;5.70;4.28;;;;;;;15.65;67.07;99016.61;1634467;86;20927;-73
2021/10/21 03:23:24;;;;;;;4.75;3.58;;;;;;;15.64;67.10;99009.72;1627098;86;20996;-73
2021/10/21 03:25:48;;;;;;;9.15;3.92;;;;;;;15.64;67.10;99005.81;1627799;86;20900;-72
2021/10/21 03:28:15;;;;;;;4.22;3.60;;;;;;;15.64;67.11;99001.91;1625024;86;20971;-72
2021/10/21 03:30:40;;;;;;;4.20;3.37;;;;;;;15.63;67.16;99004.14;1637137;86;21741;-72
2021/10/21 03:33:06;;;;;;;5.50;5.00;;;;;;;15.63;67.15;99000.23;1637302;86;20907;-72
2021/10/21 03:35:32;;;;;;;4.07;3.60;;;;;;;15.64;67.18;99003.21;1631538;86;21030;-72
2021/10/21 03:37:58;;;;;;;4.77;3.20;;;;;;;15.65;67.19;99000.14;1637594;86;20992;-72
2021/10/21 03:40:25;;;;;;;5.05;3.60;;;;;;;15.64;67.19;98998.00;1637743;86;20900;-72
2021/10/21 03:42:51;;;;;;;4.62;4.17;;;;;;;15.63;67.20;98986.37;1645018;86;21488;-72
2021/10/21 03:45:17;;;;;;;4.57;4.03;;;;;;;15.62;67.21;98977.72;1644354;86;20903;-72
2021/10/21 03:47:44;;;;;;;4.23;3.70;;;;;;;15.61;67.23;98977.81;1627997;86;21178;-72
2021/10/21 03:50:10;;;;;;;5.37;3.57;;;;;;;15.61;67.26;98964.31;1633557;85;20914;-72
2021/10/21 03:52:36;;;;;;;3.93;3.40;;;;;;;15.61;67.29;98954.36;1645693;85;20931;-72
2021/10/21 03:55:06;;;;;;;4.17;3.60;;;;;;;15.60;67.27;98943.60;1637242;86;20935;-72
2021/10/21 03:57:33;;;;;;;3.40;3.10;;;;;;;15.60;67.31;98942.30;1639298;86;20927;-72
2021/10/21 03:59:59;;;;;;;4.70;3.92;;;;;;;15.58;67.35;98930.67;1624277;86;20938;-72
2021/10/21 04:02:38;;;;;;;3.80;3.50;;;;;;;15.58;67.35;98912.44;1633322;84;20984;-72
2021/10/21 04:05:06;;;;;;;4.83;3.50;;;;;;;15.59;67.37;98874.19;1633721;86;26677;-72
2021/10/21 04:07:33;;;;;;;4.58;3.50;;;;;;;15.58;67.36;98815.20;1627198;86;20951;-72
2021/10/21 04:09:59;;;;;;;4.08;3.42;;;;;;;15.58;67.42;98820.41;1641729;85;20943;-73
2021/10/21 04:12:25;;;;;;;4.70;3.50;;;;;;;15.58;67.45;98858.19;1642029;85;20942;-72
2021/10/21 04:14:51;;;;;;;4.27;3.27;;;;;;;15.56;67.46;98863.47;1642240;86;20903;-72
2021/10/21 04:17:19;;;;;;;3.33;3.03;;;;;;;15.56;67.50;98868.67;1633265;85;20931;-72
2021/10/21 04:19:46;;;;;;;6.25;3.60;;;;;;;15.57;67.51;98856.52;1634069;87;20941;-72
2021/10/21 04:22:13;;;;;;;6.30;3.17;;;;;;;15.57;67.54;98836.98;1634967;86;21478;-73
2021/10/21 04:24:39;;;;;;;7.53;3.65;;;;;;;15.55;67.55;98819.64;1639620;85;20938;-72
2021/10/21 04:27:05;;;;;;;9.30;3.35;;;;;;;15.55;67.56;98783.17;1642196;86;20966;-71
2021/10/21 04:29:31;;;;;;;3.50;2.97;;;;;;;15.55;67.60;98749.30;1631515;85;20939;-71
2021/10/21 04:31:57;;;;;;;3.87;2.90;;;;;;;15.56;67.60;98743.63;1637428;87;22107;-71
2021/10/21 04:34:23;;;;;;;6.42;3.37;;;;;;;15.58;67.64;98725.32;1643584;86;20899;-71
2021/10/21 04:36:50;;;;;;;4.43;2.57;;;;;;;15.59;67.63;98726.98;1633432;86;20982;-71
2021/10/21 04:39:16;;;;;;;4.53;2.92;;;;;;;15.60;67.69;98777.66;1635255;85;20964;-71
2021/10/21 04:41:42;;;;;;;4.53;2.90;;;;;;;15.62;67.69;98747.13;1642355;86;20983;-71
2021/10/21 04:44:08;;;;;;;4.20;2.40;;;;;;;15.62;67.67;98739.31;1638879;86;20978;-71
2021/10/21 04:46:34;;;;;;;2.83;2.20;;;;;;;15.62;67.70;98722.38;1637230;85;22205;-71
2021/10/21 04:49:01;;;;;;;4.07;2.27;;;;;;;15.63;67.76;98701.91;1642126;86;20891;-71
2021/10/21 04:51:27;;;;;;;4.57;2.43;;;;;;;15.68;67.78;98728.48;1637715;85;20970;-71
2021/10/21 04:53:52;;;;;;;4.50;2.13;;;;;;;15.72;67.78;98732.55;1656467;85;21517;-71
2021/10/21 04:56:18;;;;;;;4.87;2.50;;;;;;;15.75;67.78;98742.77;1645490;85;20971;-71
2021/10/21 04:58:45;;;;;;;4.53;2.12;;;;;;;15.77;67.80;98727.03;1652918;85;20963;-71
2021/10/21 05:01:17;;;;;;;2.90;2.22;;;;;;;15.77;67.81;98713.53;1641566;85;20938;-71
2021/10/21 05:03:43;;;;;;;3.33;2.13;;;;;;;15.80;67.81;98732.05;1642546;86;21085;-71
2021/10/21 05:06:09;;;;;;;5.37;2.40;;;;;;;15.82;67.82;98732.30;1641406;86;21459;-71
2021/10/21 05:08:38;;;;;;;5.05;2.00;;;;;;;15.83;67.80;98739.66;1634605;86;20923;-71
2021/10/21 05:11:04;;;;;;;2.83;1.93;;;;;;;15.84;67.82;98736.11;1641643;85;20907;-71
2021/10/21 05:13:30;;;;;;;5.10;2.10;;;;;;;15.83;67.81;98736.58;1643697;85;20939;-71
2021/10/21 05:15:56;;;;;;;3.00;2.33;;;;;;;15.84;67.84;98725.22;1648937;87;20919;-71
2021/10/21 05:18:22;;;;;;;3.27;2.20;;;;;;;15.83;67.85;98723.55;1649355;86;21756;-71
2021/10/21 05:20:48;;;;;;;4.03;2.57;;;;;;;15.81;67.88;98704.58;1642453;86;20930;-71
2021/10/21 05:23:14;;;;;;;2.83;2.33;;;;;;;15.81;67.89;98731.94;1648977;85;20978;-71
2021/10/21 05:25:40;;;;;;;8.00;2.47;;;;;;;15.79;67.90;98728.60;1648835;86;20942;-71
2021/10/21 05:28:06;;;;;;;4.63;2.43;;;;;;;15.77;67.94;98720.52;1648945;85;20958;-71
2021/10/21 05:30:33;;;;;;;2.30;2.10;;;;;;;15.74;67.92;98720.26;1643572;86;20978;-71
2021/10/21 05:33:01;;;;;;;2.47;2.27;;;;;;;15.69;67.96;98692.84;1648545;85;21404;-71
2021/10/21 05:35:28;;;;;;;5.92;2.70;;;;;;;15.69;67.96;98692.84;1648945;85;20966;-71
2021/10/21 05:37:54;;;;;;;2.95;2.37;;;;;;;15.68;68.01;98678.14;1647966;85;20934;-71
2021/10/21 05:40:23;;;;;;;2.77;2.58;;;;;;;15.66;68.05;98666.52;1639635;85;21007;-71
2021/10/21 05:42:49;;;;;;;2.73;2.43;;;;;;;15.64;68.10;98659.28;1648686;85;20906;-71
2021/10/21 05:45:15;;;;;;;8.33;2.60;;;;;;;15.64;68.14;98657.14;1648555;85;21858;-71
2021/10/21 05:47:42;;;;;;;4.42;2.52;;;;;;;15.62;68.12;98669.44;1643093;85;20966;-71
2021/10/21 05:50:09;;;;;;;2.85;2.52;;;;;;;15.59;68.15;98669.20;1649080;85;26363;-71
2021/10/21 05:52:37;;;;;;;3.45;2.70;;;;;;;15.58;68.16;98684.94;1640866;85;20994;-71
2021/10/21 05:55:07;;;;;;;8.95;3.10;;;;;;;15.57;68.18;98685.41;1645192;85;20954;-71
2021/10/21 05:57:33;;;;;;;6.80;3.10;;;;;;;15.56;68.18;98678.50;1649061;85;20986;-71
2021/10/21 05:59:59;;;;;;;8.58;3.80;;;;;;;15.55;68.18;98680.73;1656298;85;20883;-71
2021/10/21 06:02:26;;;;;;;6.23;3.50;;;;;;;15.53;68.20;98688.66;1641770;85;20934;-71
2021/10/21 06:04:52;;;;;;;3.50;3.20;;;;;;;15.52;68.20;98671.36;1654455;85;20946;-71
2021/10/21 06:07:18;;;;;;;9.07;4.17;;;;;;;15.51;68.19;98678.81;1652258;85;20898;-71
2021/10/21 06:09:44;;;;;;;4.12;3.40;;;;;;;15.49;68.21;98641.61;1647209;85;21014;-71
2021/10/21 06:12:11;;;;;;;5.70;3.58;;;;;;;15.47;68.22;98632.23;1644441;85;21349;-71
2021/10/21 06:14:37;;;;;;;5.05;3.98;;;;;;;15.44;68.23;98628.06;1644118;85;20939;-71
2021/10/21 06:17:03;;;;;;;4.97;4.00;;;;;;;15.44;68.27;98633.73;1635454;85;20950;-71
2021/10/21 06:19:30;;;;;;;3.90;3.50;;;;;;;15.43;68.29;98619.05;1641703;85;20956;-71
2021/10/21 06:22:04;;;;;;;7.07;3.97;;;;;;;15.42;68.26;98619.52;1651973;85;20922;-71
2021/10/21 06:24:28;;;;;;;9.28;3.27;;;;;;;15.40;68.27;98612.27;1643068;85;20884;-71
2021/10/21 06:26:54;;;;;;;4.53;3.72;;;;;;;15.40;68.30;98630.50;1649441;85;20946;-71
2021/10/21 06:29:20;;;;;;;3.85;3.05;;;;;;;15.41;68.31;98627.44;1639521;85;20996;-71
2021/10/21 06:31:50;;;;;;;3.60;3.30;;;;;;;15.42;68.32;98649.94;1632203;85;21004;-71
2021/10/21 06:34:17;;;;;;;8.35;3.50;;;;;;;15.41;68.35;98668.64;1633804;86;20971;-71
2021/10/21 06:36:44;;;;;;;4.33;3.27;;;;;;;15.42;68.35;98648.16;1642370;86;20946;-72
2021/10/21 06:39:10;;;;;;;4.78;3.95;;;;;;;15.43;68.35;98642.48;1641980;86;20947;-72
2021/10/21 06:41:36;;;;;;;5.92;3.62;;;;;;;15.43;68.40;98616.44;1641827;86;20971;-72
2021/10/21 06:44:08;;;;;;;3.90;3.52;;;;;;;15.44;68.37;98640.25;1639444;86;20938;-72
2021/10/21 06:46:34;;;;;;;3.90;3.53;;;;;;;15.43;68.36;98635.98;1638731;86;21000;-72
2021/10/21 06:49:00;;;;;;;4.05;3.65;;;;;;;15.43;68.40;98650.30;1640992;86;20935;-72
2021/10/21 06:51:27;;;;;;;5.17;3.62;;;;;;;15.43;68.43;98667.23;1636018;86;20940;-72
2021/10/21 06:53:54;;;;;;;4.93;3.93;;;;;;;15.44;68.44;98671.03;1630996;86;20975;-72
2021/10/21 06:56:20;;;;;;;8.08;3.37;;;;;;;15.44;68.44;98668.43;1637147;86;20899;-72
2021/10/21 06:58:46;;;;;;;4.58;3.70;;;;;;;15.44;68.49;98667.59;1639802;87;20922;-72
2021/10/21 07:01:12;;;;;;;6.27;3.67;;;;;;;15.45;68.52;98684.89;1651751;85;20875;-72
2021/10/21 07:03:38;;;;;;;6.17;4.00;;;;;;;15.42;68.55;98657.28;1640323;85;20977;-72
2021/10/21 07:06:04;;;;;;;3.90;3.60;;;;;;;15.36;68.55;98675.09;1639919;87;20939;-72
2021/10/21 07:08:30;;;;;;;4.60;3.80;;;;;;;15.30;68.64;98685.91;1637194;86;20953;-72
2021/10/21 07:11:01;;;;;;;4.62;3.62;;;;;;;15.27;68.72;98703.03;1638919;86;20943;-72
2021/10/21 07:13:27;;;;;;;5.92;4.00;;;;;;;15.24;68.78;98704.91;1641560;86;20959;-72
2021/10/21 07:15:53;;;;;;;4.40;3.60;;;;;;;15.18;68.88;98701.40;1632609;86;20868;-72
2021/10/21 07:18:19;;;;;;;5.40;3.67;;;;;;;15.10;68.95;98700.22;1639917;85;20920;-72
2021/10/21 07:20:45;;;;;;;7.00;3.67;;;;;;;15.01;69.11;98695.17;1639632;85;20887;-72
2021/10/21 07:23:11;;;;;;;5.17;2.83;;;;;;;14.96;69.36;98675.59;1643568;86;20982;-72
2021/10/21 07:25:38;;;;;;;3.70;3.40;;;;;;;14.89;69.28;98695.97;1631332;86;20946;-72
2021/10/21 07:28:06;;;;;;;3.77;3.30;;;;;;;14.82;69.30;98682.98;1625095;86;21345;-72
2021/10/21 07:30:32;;;;;;;10.47;3.40;;;;;;;14.72;69.48;98691.84;1641596;86;20903;-72
2021/10/21 07:32:58;;;;;;;4.03;3.13;;;;;;;14.67;69.64;98691.29;1629116;86;20954;-72
2021/10/21 07:35:27;;;;;;;7.10;2.95;;;;;;;14.62;69.71;98683.41;1643664;86;20935;-72
2021/10/21 07:37:53;;;;;;;3.67;3.30;;;;;;;14.57;69.75;98668.09;1639921;86;21845;-72
2021/10/21 07:40:22;;;;;;;4.15;3.27;;;;;;;14.49;69.86;98679.00;1644751;86;21375;-72
2021/10/21 07:42:48;;;;;;;3.27;3.03;;;;;;;14.44;70.03;98665.92;1641924;86;20987;-72
2021/10/21 07:45:14;;;;;;;5.03;2.93;;;;;;;14.39;70.13;98666.64;1640709;85;21661;-72
2021/10/21 07:47:40;;;;;;;5.97;3.30;;;;;;;14.36;70.21;98659.03;1635425;87;21510;-72
2021/10/21 07:50:08;;;;;;;4.17;3.42;;;;;;;14.33;70.29;98654.86;1629494;86;21078;-72
2021/10/21 07:52:37;;;;;;;6.10;3.33;;;;;;;14.31;70.64;98639.83;1641420;86;20962;-72
2021/10/21 07:55:06;;;;;;;3.45;3.15;;;;;;;14.29;70.46;98647.34;1641546;86;21381;-72
2021/10/21 07:57:34;;;;;;;5.30;3.60;;;;;;;14.25;70.55;98618.94;1635613;86;21781;-72
2021/10/21 08:00:00;;;;;;;4.70;3.33;;;;;;;14.24;70.59;98604.73;1641609;87;20959;-72
2021/10/21 08:02:26;;;;;;;4.07;3.13;;;;;;;14.22;70.69;98600.94;1638072;86;20947;-72
2021/10/21 08:04:53;;;;;;;6.78;3.65;;;;;;;14.23;70.80;98587.47;1632904;86;21348;-72
2021/10/21 08:07:19;;;;;;;4.70;3.57;;;;;;;14.21;70.85;98582.38;1638205;87;20926;-72
2021/10/21 08:09:45;;;;;;;3.70;3.40;;;;;;;14.20;70.94;98567.70;1641720;86;21625;-72
2021/10/21 08:12:18;;;;;;;4.33;3.52;;;;;;;14.18;71.02;98547.47;1652551;85;21451;-72
2021/10/21 08:14:44;;;;;;;3.57;3.27;;;;;;;14.20;71.04;98537.81;1638824;85;20979;-72
2021/10/21 08:17:10;;;;;;;5.50;3.40;;;;;;;14.23;71.15;98522.02;1647398;85;22352;-72
2021/10/21 08:19:36;;;;;;;4.83;3.93;;;;;;;14.28;71.17;98506.59;1631020;85;22125;-72
2021/10/21 08:22:02;;;;;;;4.93;4.27;;;;;;;14.33;71.37;98516.23;1629616;85;21116;-72
2021/10/21 08:24:28;;;;;;;3.90;3.55;;;;;;;14.39;71.40;98507.56;1634144;85;22415;-72
2021/10/21 08:26:55;;;;;;;8.10;4.13;;;;;;;14.46;71.48;98504.13;1634542;86;21403;-72
2021/10/21 08:29:22;;;;;;;3.60;3.30;;;;;;;14.51;71.55;98495.09;1637978;86;22180;-72
2021/10/21 08:31:51;;;;;;;4.08;3.65;;;;;;;14.55;71.57;98493.97;1640135;87;21444;-72
2021/10/21 08:34:18;;;;;;;3.67;3.37;;;;;;;14.59;71.68;98488.06;1641075;86;21796;-72
2021/10/21 08:36:47;;;;;;;8.13;3.87;;;;;;;14.64;71.85;98478.19;1640242;85;21491;-72
2021/10/21 08:39:13;;;;;;;4.37;3.97;;;;;;;14.68;71.85;98469.71;1638570;86;21441;-72
2021/10/21 08:41:42;;;;;;;5.05;4.08;;;;;;;14.63;72.16;98436.67;1629825;86;21745;-72
2021/10/21 08:44:08;;;;;;;4.33;3.95;;;;;;;14.77;71.93;98450.88;1641268;86;21447;-72
2021/10/21 08:46:34;;;;;;;5.73;4.30;;;;;;;14.80;72.01;98439.80;1640426;86;21530;-72
2021/10/21 08:49:03;;;;;;;4.30;3.90;;;;;;;14.80;72.08;98431.16;1630458;86;26234;-72
2021/10/21 08:51:34;;;;;;;3.83;3.27;;;;;;;14.82;72.21;98429.29;1631027;86;21408;-72
2021/10/21 08:54:10;;;;;;;7.63;3.73;;;;;;;14.82;72.32;98430.13;1634411;85;20879;-72
2021/10/21 08:56:33;;;;;;;8.08;3.40;;;;;;;14.83;72.28;98424.45;1633204;86;20993;-72
2021/10/21 08:59:03;;;;;;;4.97;3.40;;;;;;;14.87;72.37;98415.50;1642097;85;21034;-71
2021/10/21 09:01:39;;;;;;;3.80;3.37;;;;;;;14.93;72.83;98429.39;1639977;85;20943;-73
2021/10/21 09:09:27;;;;;;;3.45;2.87;;;;;;;15.08;72.57;98437.88;1639940;86;21801;-73
2021/10/21 09:12:12;;;;;;;4.05;3.00;;;;;;;15.13;72.62;98401.48;1648151;85;21831;-72
2021/10/21 09:14:45;;;;;;;3.58;2.87;;;;;;;15.20;72.65;98422.25;1646462;85;22234;-72
2021/10/21 09:17:13;;;;;;;3.15;2.85;;;;;;;15.29;72.63;98425.98;1642956;86;21073;-73
2021/10/21 09:19:41;;;;;;;3.35;2.70;;;;;;;15.36;72.64;98428.52;1642166;85;21274;-72
2021/10/21 09:22:28;;;;;;;4.47;2.67;;;;;;;15.39;72.61;98421.80;1643301;85;20966;-72
2021/10/21 09:24:56;;;;;;;2.75;2.55;;;;;;;15.39;72.55;98403.56;1639497;85;21465;-72
2021/10/21 09:27:29;;;;;;;2.85;2.65;;;;;;;15.42;72.59;98413.77;1638839;85;20931;-72
2021/10/21 09:29:55;;;;;;;4.45;3.00;;;;;;;15.39;72.59;98456.95;1645431;85;20967;-72
2021/10/21 09:32:31;;;;;;;3.33;2.70;;;;;;;15.31;72.71;98468.84;1631955;85;20962;-72
2021/10/21 09:35:02;;;;;;;6.12;3.70;;;;;;;15.22;72.78;98474.21;1645761;85;20979;-73
2021/10/21 09:37:40;;;;;;;10.45;3.62;;;;;;;15.15;72.99;98493.80;1644767;85;21761;-73
2021/10/21 09:40:27;;;;;;;3.83;2.55;;;;;;;15.05;72.92;98505.33;1645890;85;38319;-73
2021/10/21 09:43:02;;;;;;;2.22;1.67;;;;;;;14.88;73.00;98499.96;1641638;86;20922;-73
2021/10/21 09:45:41;;;;;;;3.10;1.60;;;;;;;14.65;73.01;98481.62;1645674;85;21570;-73
2021/10/21 09:48:08;;;;;;;4.72;1.50;;;;;;;14.49;73.28;98472.73;1644197;85;20979;-73
2021/10/21 09:50:38;;;;;;;;;;;;;;;14.37;73.35;98456.13;1645415;86;20931;-73
2021/10/21 09:53:20;;;;;;;1.75;1.37;;;;;;;14.37;73.85;98456.59;1621630;87;20161;-73
2021/10/21 09:55:55;;;;;;;4.47;1.30;;;;;;;14.41;73.60;98455.03;1642662;86;20975;-73
2021/10/21 09:58:24;;;;;;;6.47;1.95;;;;;;;14.44;73.59;98455.30;1646359;86;20938;-73
2021/10/21 10:00:51;;;;;;;4.60;1.65;;;;;;;14.43;73.62;98444.53;1620081;87;20967;-73
2021/10/21 10:03:21;;;;;;;11.43;1.80;;;;;;;14.45;73.78;98453.89;1621583;87;20930;-73
2021/10/21 10:05:53;;;;;;;6.25;1.72;;;;;;;14.49;73.75;98448.02;1620499;87;21046;-73
2021/10/21 10:08:23;;;;;;;2.65;1.52;;;;;;;14.47;73.70;98450.72;1642542;85;20875;-73
2021/10/21 10:10:53;;;;;;;2.12;1.30;;;;;;;14.46;73.72;98461.23;1640991;85;20959;-73
2021/10/21 10:13:24;;;;;;;1.95;1.30;;;;;;;14.46;73.81;98436.52;1636818;86;20979;-73
2021/10/21 10:15:52;;;;;;;1.45;1.25;;;;;;;14.51;73.94;98447.45;1637026;85;20961;-73
2021/10/21 10:18:25;;;;;;;4.50;1.50;;;;;;;14.59;74.05;98452.95;1635167;86;20941;-73
2021/10/21 10:21:19;;;;;;;2.25;1.25;;;;;;;14.74;74.17;98469.30;1633795;86;20927;-73
2021/10/21 10:24:05;;;;;;;2.80;1.45;;;;;;;14.88;74.13;98484.34;1634792;86;20983;-73
2021/10/21 10:26:54;;;;;;;2.17;1.40;;;;;;;15.00;74.21;98465.77;1635573;86;20911;-73
2021/10/21 10:29:40;;;;;;;1.90;1.10;;;;;;;15.09;74.09;98461.20;1633922;86;20915;-73
2021/10/21 10:32:31;;;;;;;1.85;0.90;;;;;;;15.16;74.00;98462.92;1641508;86;20959;-73
2021/10/21 10:35:12;;;;;;;6.47;0.95;;;;;;;15.20;73.96;98452.66;1647700;86;20975;-73
2021/10/21 10:37:49;;;;;;;2.62;0.72;;;;;;;15.28;74.07;98454.27;1636698;86;20946;-73
2021/10/21 10:40:19;;;;;;;3.17;1.05;;;;;;;15.34;73.97;98453.00;1629131;86;20919;-73
2021/10/21 10:42:51;;;;;;;4.28;0.80;;;;;;;15.37;73.94;98431.48;1639259;86;20948;-73
2021/10/21 10:45:17;;;;;;;2.20;0.50;;;;;;;15.41;73.89;98443.36;1630425;85;20988;-73
2021/10/21 10:47:53;;;;;;;5.20;0.73;;;;;;;15.41;73.85;98456.84;1635165;86;20971;-73
2021/10/21 10:50:30;;;;;;;2.85;0.90;;;;;;;15.45;73.83;98450.48;1635973;86;20989;-73
2021/10/21 10:53:08;;;;;;;3.98;0.50;;;;;;;15.52;73.79;98425.20;1628342;86;20931;-73
2021/10/21 10:55:47;;;;;;;8.08;0.62;;;;;;;15.55;73.54;98433.27;1639085;86;20938;-73
2021/10/21 10:58:17;;;;;;;1.12;0.53;;;;;;;15.65;73.65;98430.37;1637592;86;20979;-73
2021/10/21 11:00:59;;;;;;;6.83;0.60;;;;;;;15.78;73.55;98439.45;1624176;86;20976;-73
2021/10/21 11:03:42;;;;;;;3.35;0.60;;;;;;;15.85;73.23;98427.64;1638406;86;20955;-73
2021/10/21 11:06:12;;;;;;;3.20;0.60;;;;;;;15.80;73.12;98436.25;1640180;86;20938;-73
2021/10/21 11:09:04;;;;;;;2.52;0.30;;;;;;;15.73;73.08;98437.64;1638009;86;20927;-73
2021/10/21 11:11:51;;;;;;;5.95;0.62;;;;;;;15.69;72.84;98456.56;1643932;85;20943;-73
2021/10/21 11:14:21;;;;;;;4.28;0.70;;;;;;;15.70;72.63;98463.44;1610660;85;20907;-73
2021/10/21 11:16:54;;;;;;;8.18;0.95;;;;;;;15.69;72.50;98455.73;1650016;85;20938;-73
2021/10/21 11:19:43;;;;;;;8.00;1.00;;;;;;;15.73;72.56;98445.45;1648661;85;20923;-73
2021/10/21 11:22:24;;;;;;;4.97;0.68;;;;;;;15.77;72.06;98441.22;1627052;85;20979;-73
2021/10/21 11:24:56;;;;;;;8.78;0.82;;;;;;;15.82;72.01;98457.36;1637519;85;20967;-73
2021/10/21 11:27:36;;;;;;;5.67;0.70;;;;;;;15.86;72.01;98477.52;1651376;85;20942;-73
2021/10/21 11:30:13;;;;;;;4.87;0.60;;;;;;;15.94;71.76;98467.84;1632783;85;20926;-73
2021/10/21 11:32:42;;;;;;;11.05;1.00;;;;;;;15.95;71.43;98468.20;1626951;85;21070;-73
2021/10/21 11:35:20;;;;;;;10.80;1.37;;;;;;;15.96;71.21;98452.45;1643392;85;20903;-73
2021/10/21 11:37:54;;;;;;;15.88;1.45;;;;;;;15.93;71.29;98494.38;1635762;85;20895;-73
2021/10/21 11:40:37;;;;;;;11.90;1.02;;;;;;;15.84;70.74;98454.64;1638151;86;20903;-73
2021/10/21 11:43:24;;;;;;;15.28;1.00;;;;;;;15.75;70.85;98473.54;1625385;86;21066;-73
2021/10/21 11:45:59;;;;;;;18.20;1.55;;;;;;;15.71;70.55;98479.91;1629667;85;20903;-73
2021/10/21 11:48:36;;;;;;;19.07;1.57;;;;;;;15.74;70.57;98471.88;1638399;86;20942;-73